Time;durP1;ratioP1;P1;durP2;ratioP2;P2;SDS_P1;SDS_P2;PMS_P1;PMS_P2;Temp;Humidity;BMP_temperature;BMP_pressure;BME280_temperature;BME280_humidity;BME280_pressure;Samples;Min_cycle;Max_cycle;Signal;HPM_P1;HPM_P2
2022/02/24 00:00:08;;;;;;;18.17;3.50;;;7.90;99.90;;;;;;5059002;28;38682;-78
2022/02/24 00:02:34;;;;;;;18.17;3.30;;;7.90;99.90;;;;;;5044759;28;37461;-79
2022/02/24 00:05:00;;;;;;;17.37;3.33;;;7.90;99.90;;;;;;5066947;28;38176;-79
2022/02/24 00:07:26;;;;;;;11.00;2.90;;;8.00;99.90;;;;;;5064536;28;37961;-79
2022/02/24 00:09:53;;;;;;;11.97;2.80;;;8.00;99.90;;;;;;5065401;28;39860;-79
2022/02/24 00:12:19;;;;;;;14.50;3.40;;;8.00;99.90;;;;;;5060173;28;38931;-79
2022/02/24 00:14:46;;;;;;;12.60;2.93;;;8.00;99.90;;;;;;5065158;28;38232;-79
2022/02/24 00:17:12;;;;;;;16.53;3.10;;;8.00;99.90;;;;;;5065198;28;37073;-78
2022/02/24 00:19:38;;;;;;;14.47;3.23;;;8.00;99.90;;;;;;5061425;28;37920;-78
2022/02/24 00:22:05;;;;;;;14.63;2.90;;;8.00;99.90;;;;;;5059901;28;39179;-78
2022/02/24 00:24:31;;;;;;;14.10;3.00;;;8.00;99.90;;;;;;5065179;28;37301;-79
2022/02/24 00:26:57;;;;;;;16.70;3.30;;;8.00;99.90;;;;;;5065377;28;36880;-78
2022/02/24 00:29:23;;;;;;;14.57;3.10;;;8.00;99.90;;;;;;5065690;28;37558;-79
2022/02/24 00:31:49;;;;;;;20.37;3.10;;;8.00;99.90;;;;;;5063901;28;39529;-79
2022/02/24 00:34:15;;;;;;;18.67;2.90;;;8.00;99.90;;;;;;5068876;28;38722;-79
2022/02/24 00:36:44;;;;;;;15.97;3.53;;;8.00;99.90;;;;;;5071329;28;36815;-78
2022/02/24 00:39:10;;;;;;;15.47;2.67;;;8.00;99.90;;;;;;5060563;28;38957;-78
2022/02/24 00:41:37;;;;;;;11.13;3.37;;;8.00;99.90;;;;;;5065942;28;38515;-79
2022/02/24 00:44:03;;;;;;;17.97;4.80;;;8.00;99.90;;;;;;5063204;28;39369;-79
2022/02/24 00:46:29;;;;;;;13.47;2.60;;;8.00;99.90;;;;;;5066347;28;35817;-78
2022/02/24 00:48:55;;;;;;;20.37;3.80;;;8.00;99.90;;;;;;5066059;28;38892;-79
2022/02/24 00:51:21;;;;;;;15.57;3.07;;;8.00;99.90;;;;;;5063611;28;38447;-79
2022/02/24 00:53:47;;;;;;;13.10;3.57;;;8.00;99.90;;;;;;5070167;28;37092;-79
2022/02/24 00:56:13;;;;;;;17.00;4.00;;;8.00;99.90;;;;;;5062672;28;36270;-79
2022/02/24 00:58:39;;;;;;;16.77;3.63;;;8.00;99.90;;;;;;5066190;28;38908;-78
2022/02/24 01:01:06;;;;;;;11.43;3.13;;;8.00;99.90;;;;;;5058237;28;37294;-78
2022/02/24 01:03:32;;;;;;;22.33;3.97;;;8.10;99.90;;;;;;5063972;28;36959;-79
2022/02/24 01:05:58;;;;;;;15.37;3.23;;;8.10;99.90;;;;;;5060622;28;37096;-79
2022/02/24 01:08:24;;;;;;;14.33;3.67;;;8.10;99.90;;;;;;5066419;28;38533;-79
2022/02/24 01:10:50;;;;;;;19.00;4.00;;;8.10;99.90;;;;;;5063171;28;39330;-79
2022/02/24 01:13:16;;;;;;;16.03;3.70;;;8.10;99.90;;;;;;5067587;28;37681;-79
2022/02/24 01:15:43;;;;;;;15.80;3.67;;;8.10;99.90;;;;;;5056628;28;37667;-79
2022/02/24 01:18:09;;;;;;;19.00;3.33;;;8.00;99.90;;;;;;5062874;28;38752;-78
2022/02/24 01:20:36;;;;;;;17.20;3.20;;;8.10;99.90;;;;;;5068515;28;38215;-79
2022/02/24 01:23:03;;;;;;;15.03;3.57;;;8.10;99.90;;;;;;5067437;28;39547;-79
2022/02/24 01:25:30;;;;;;;18.03;4.00;;;8.10;99.90;;;;;;5067343;28;47485;-80
2022/02/24 01:27:56;;;;;;;17.00;3.13;;;8.10;99.90;;;;;;5067657;28;39031;-79
2022/02/24 01:30:22;;;;;;;18.80;3.80;;;8.10;99.90;;;;;;5056259;28;37503;-79
2022/02/24 01:32:48;;;;;;;15.57;3.57;;;8.10;99.90;;;;;;5061661;28;39089;-79
2022/02/24 01:35:14;;;;;;;20.87;3.83;;;8.10;99.90;;;;;;5067976;28;38115;-79
2022/02/24 01:37:41;;;;;;;11.77;3.47;;;8.10;99.90;;;;;;5064101;28;38935;-79
2022/02/24 01:40:08;;;;;;;13.50;3.40;;;8.10;99.90;;;;;;5066389;28;40199;-78
2022/02/24 01:42:34;;;;;;;16.10;3.67;;;8.10;99.90;;;;;;5067287;28;37336;-79
2022/02/24 01:45:00;;;;;;;16.13;3.50;;;8.10;99.90;;;;;;5057513;28;37021;-79
2022/02/24 01:47:27;;;;;;;19.93;4.30;;;8.10;99.90;;;;;;5065763;28;38539;-79
2022/02/24 01:49:53;;;;;;;13.03;3.07;;;8.10;99.90;;;;;;5055016;28;38436;-79
2022/02/24 01:52:19;;;;;;;21.17;3.67;;;8.00;99.90;;;;;;5064649;28;38085;-79
2022/02/24 01:54:46;;;;;;;18.73;4.10;;;8.00;99.90;;;;;;5067246;28;37068;-78
2022/02/24 01:57:12;;;;;;;14.47;4.60;;;8.00;99.90;;;;;;5075254;28;39766;-79
2022/02/24 01:59:38;;;;;;;16.67;4.73;;;8.00;99.90;;;;;;5062451;28;38948;-79
2022/02/24 02:02:05;;;;;;;15.50;3.37;;;8.10;99.90;;;;;;5060584;28;36985;-79
2022/02/24 02:04:31;;;;;;;12.17;2.87;;;8.00;99.90;;;;;;5065321;28;37114;-79
2022/02/24 02:06:58;;;;;;;12.07;3.30;;;8.00;99.90;;;;;;5073786;28;40178;-79
2022/02/24 02:09:25;;;;;;;16.97;3.03;;;8.10;99.90;;;;;;5060766;28;38483;-79
2022/02/24 02:11:51;;;;;;;19.83;3.50;;;8.10;99.90;;;;;;5065402;28;38673;-79
2022/02/24 02:14:17;;;;;;;11.73;2.83;;;8.10;99.90;;;;;;5060500;28;36773;-79
2022/02/24 02:16:45;;;;;;;13.23;3.13;;;8.10;99.90;;;;;;5069619;28;38968;-79
2022/02/24 02:19:11;;;;;;;18.07;3.13;;;8.10;99.90;;;;;;5071455;28;38670;-78
2022/02/24 02:21:37;;;;;;;10.87;2.83;;;8.10;99.90;;;;;;5064005;28;38883;-79
2022/02/24 02:24:04;;;;;;;16.27;3.27;;;8.10;99.90;;;;;;5061028;28;37511;-79
2022/02/24 02:26:31;;;;;;;12.23;2.90;;;8.10;99.90;;;;;;5061080;28;37602;-79
2022/02/24 02:28:59;;;;;;;20.23;4.67;;;8.10;99.90;;;;;;5070625;28;38469;-78
2022/02/24 02:31:25;;;;;;;18.03;2.77;;;8.20;99.90;;;;;;5062356;28;38843;-79
2022/02/24 02:34:04;;;;;;;16.83;3.20;;;8.20;99.90;;;;;;5066868;28;38511;-79
2022/02/24 02:36:30;;;;;;;9.40;3.10;;;8.20;99.90;;;;;;5068385;28;48685;-80
2022/02/24 02:38:57;;;;;;;12.10;3.17;;;8.20;99.90;;;;;;5072110;28;38363;-79
2022/02/24 02:41:31;;;;;;;10.27;2.73;;;8.20;99.90;;;;;;5062485;28;38506;-79
2022/02/24 02:43:57;;;;;;;15.20;3.20;;;8.20;99.90;;;;;;5067257;28;37059;-79
2022/02/24 02:46:24;;;;;;;15.43;3.47;;;8.10;99.90;;;;;;5068048;28;39639;-79
2022/02/24 02:48:50;;;;;;;14.67;3.20;;;8.10;99.90;;;;;;5058128;28;38812;-78
2022/02/24 02:51:16;;;;;;;12.10;3.80;;;8.20;99.90;;;;;;5068249;28;37859;-79
2022/02/24 02:53:43;;;;;;;15.33;3.70;;;8.10;99.90;;;;;;5060786;28;38962;-79
2022/02/24 02:56:09;;;;;;;18.63;3.43;;;8.10;99.90;;;;;;5065745;28;38834;-78
2022/02/24 02:58:36;;;;;;;13.57;3.07;;;8.10;99.90;;;;;;5048304;28;38912;-80
2022/02/24 03:01:02;;;;;;;20.07;3.70;;;8.10;99.90;;;;;;5066919;28;39087;-77
2022/02/24 03:03:28;;;;;;;16.40;3.00;;;8.10;99.90;;;;;;5063024;28;38103;-79
2022/02/24 03:05:55;;;;;;;10.93;3.63;;;8.10;99.90;;;;;;5052295;28;38631;-78
2022/02/24 03:08:22;;;;;;;17.00;3.23;;;8.10;99.90;;;;;;5068862;28;38446;-78
2022/02/24 03:10:49;;;;;;;16.10;3.13;;;8.10;99.90;;;;;;5047655;28;38841;-78
2022/02/24 03:13:15;;;;;;;13.20;3.00;;;8.10;99.90;;;;;;5063431;28;37178;-78
2022/02/24 03:15:42;;;;;;;18.63;4.00;;;8.10;99.90;;;;;;5044953;28;37476;-79
2022/02/24 03:18:08;;;;;;;18.37;3.83;;;8.10;99.90;;;;;;5061253;28;38154;-79
2022/02/24 03:20:35;;;;;;;10.73;3.13;;;8.10;99.90;;;;;;5048161;28;39222;-78
2022/02/24 03:23:05;;;;;;;16.67;3.40;;;8.10;99.90;;;;;;5053327;28;39124;-79
2022/02/24 03:25:31;;;;;;;18.87;3.40;;;8.10;99.90;;;;;;5065476;28;48472;-79
2022/02/24 03:27:58;;;;;;;12.37;3.87;;;8.00;99.90;;;;;;5056216;28;38280;-80
2022/02/24 03:30:27;;;;;;;15.33;3.57;;;8.00;99.90;;;;;;5066635;28;39126;-79
2022/02/24 03:32:55;;;;;;;14.10;3.30;;;8.00;99.90;;;;;;5046609;28;37368;-80
2022/02/24 03:35:21;;;;;;;15.67;3.90;;;8.00;99.90;;;;;;5043009;28;38639;-79
2022/02/24 03:37:48;;;;;;;13.73;3.33;;;8.00;99.90;;;;;;5068941;28;38585;-79
2022/02/24 03:40:15;;;;;;;12.23;3.67;;;8.00;99.90;;;;;;5066207;28;36715;-78
2022/02/24 03:42:43;;;;;;;12.57;3.57;;;8.00;99.90;;;;;;5044135;28;37665;-79
2022/02/24 03:45:09;;;;;;;18.63;4.40;;;8.00;99.90;;;;;;5050293;28;37487;-79
2022/02/24 03:47:35;;;;;;;15.60;3.80;;;8.00;99.90;;;;;;5066589;28;39085;-79
2022/02/24 03:50:03;;;;;;;17.63;4.37;;;8.00;99.90;;;;;;5068443;28;36932;-78
2022/02/24 03:52:29;;;;;;;19.73;4.47;;;8.00;99.90;;;;;;5052478;28;38874;-79
2022/02/24 03:54:55;;;;;;;16.03;4.17;;;8.00;99.90;;;;;;5058065;28;38247;-79
2022/02/24 03:57:21;;;;;;;17.83;3.80;;;7.90;99.90;;;;;;5040806;28;38811;-79
2022/02/24 03:59:48;;;;;;;13.63;3.90;;;8.00;99.90;;;;;;5059529;28;38983;-79
2022/02/24 04:02:14;;;;;;;15.30;3.67;;;8.00;99.90;;;;;;5047640;28;37643;-79
2022/02/24 04:04:42;;;;;;;15.43;3.83;;;8.00;99.90;;;;;;5066993;28;38796;-79
2022/02/24 04:07:09;;;;;;;16.30;3.87;;;8.00;99.90;;;;;;5049436;28;38825;-79
2022/02/24 04:09:35;;;;;;;16.57;3.90;;;7.90;99.90;;;;;;5042822;28;38017;-79
2022/02/24 04:12:03;;;;;;;14.27;4.17;;;8.00;99.90;;;;;;5068780;28;37845;-78
2022/02/24 04:14:29;;;;;;;13.03;3.17;;;8.00;99.90;;;;;;5047752;28;37651;-79
2022/02/24 04:16:56;;;;;;;17.87;3.50;;;8.00;99.90;;;;;;5047638;28;37603;-79
2022/02/24 04:19:24;;;;;;;13.97;3.33;;;8.00;99.90;;;;;;5046606;28;37221;-79
2022/02/24 04:21:50;;;;;;;16.30;3.53;;;8.00;99.90;;;;;;5053175;28;37692;-79
2022/02/24 04:24:16;;;;;;;17.43;3.43;;;8.00;99.90;;;;;;5069198;28;39713;-79
2022/02/24 04:26:42;;;;;;;8.57;3.10;;;8.00;99.90;;;;;;5048770;28;37926;-79
2022/02/24 04:29:09;;;;;;;16.73;3.67;;;8.00;99.90;;;;;;5041491;28;38557;-79
2022/02/24 04:31:35;;;;;;;15.23;3.60;;;8.00;99.90;;;;;;5050932;28;38933;-79
2022/02/24 04:34:01;;;;;;;15.70;3.40;;;8.00;99.90;;;;;;5068249;28;38797;-78
2022/02/24 04:36:27;;;;;;;16.23;3.70;;;7.90;99.90;;;;;;5066069;28;47712;-79
2022/02/24 04:38:53;;;;;;;14.97;3.97;;;7.90;99.90;;;;;;5064727;28;40421;-79
2022/02/24 04:41:19;;;;;;;16.23;3.47;;;8.00;99.90;;;;;;5064519;28;38665;-78
2022/02/24 04:43:45;;;;;;;15.70;3.60;;;8.00;99.90;;;;;;5060173;28;39667;-79
2022/02/24 04:46:11;;;;;;;15.80;3.57;;;8.00;99.90;;;;;;5043138;28;40029;-79
2022/02/24 04:48:37;;;;;;;14.07;3.37;;;7.90;99.90;;;;;;5060361;28;38346;-79
2022/02/24 04:51:04;;;;;;;12.77;4.20;;;7.90;99.90;;;;;;5060640;28;37309;-78
2022/02/24 04:53:30;;;;;;;15.73;3.70;;;7.90;99.90;;;;;;5037946;28;40854;-79
2022/02/24 04:55:56;;;;;;;15.10;3.70;;;7.90;99.90;;;;;;5046940;28;39350;-79
2022/02/24 04:58:22;;;;;;;14.73;3.47;;;7.90;99.90;;;;;;5044027;28;38311;-79
2022/02/24 05:00:48;;;;;;;14.93;3.80;;;7.90;99.90;;;;;;5053901;28;38928;-79
2022/02/24 05:03:14;;;;;;;16.83;3.90;;;7.90;99.90;;;;;;5043135;28;40589;-78
2022/02/24 05:05:42;;;;;;;12.70;3.63;;;7.90;99.90;;;;;;5065876;28;38345;-79
2022/02/24 05:08:09;;;;;;;17.03;3.47;;;7.90;99.90;;;;;;5045771;28;39769;-79
2022/02/24 05:10:35;;;;;;;13.90;3.73;;;7.90;99.90;;;;;;5060193;28;37025;-79
2022/02/24 05:13:01;;;;;;;15.00;3.77;;;8.00;99.90;;;;;;5051255;28;39643;-79
2022/02/24 05:15:27;;;;;;;14.70;3.23;;;8.00;99.90;;;;;;5068333;28;38356;-79
2022/02/24 05:17:54;;;;;;;14.40;3.63;;;7.90;99.90;;;;;;5065789;28;39133;-79
2022/02/24 05:20:20;;;;;;;16.43;3.20;;;7.90;99.90;;;;;;5063276;28;37408;-78
2022/02/24 05:22:46;;;;;;;16.87;4.10;;;7.90;99.90;;;;;;5064619;28;39566;-79
2022/02/24 05:25:14;;;;;;;16.60;4.10;;;8.00;99.90;;;;;;5069781;28;39054;-78
2022/02/24 05:27:42;;;;;;;14.63;3.77;;;8.00;99.90;;;;;;5061515;28;38727;-79
2022/02/24 05:30:10;;;;;;;16.93;3.50;;;8.00;99.90;;;;;;5049715;28;38015;-79
2022/02/24 05:32:36;;;;;;;14.80;3.37;;;8.00;99.90;;;;;;5047328;28;39934;-79
2022/02/24 05:35:04;;;;;;;18.27;3.60;;;8.00;99.90;;;;;;5067925;28;39031;-78
2022/02/24 05:37:31;;;;;;;18.83;3.50;;;7.90;99.90;;;;;;5058249;28;38701;-78
2022/02/24 05:39:57;;;;;;;13.30;3.60;;;8.00;99.90;;;;;;5048624;28;36453;-80
2022/02/24 05:42:23;;;;;;;13.80;4.00;;;7.90;99.90;;;;;;5042623;28;39688;-79
2022/02/24 05:44:50;;;;;;;15.13;4.43;;;7.90;99.90;;;;;;5058429;28;39113;-79
2022/02/24 05:47:17;;;;;;;14.33;3.73;;;7.90;99.90;;;;;;5041151;28;38708;-78
2022/02/24 05:49:43;;;;;;;10.50;3.33;;;7.90;99.90;;;;;;5041974;28;37398;-79
2022/02/24 05:52:09;;;;;;;16.23;3.60;;;7.90;99.90;;;;;;5045119;28;40228;-78
2022/02/24 05:54:36;;;;;;;12.37;3.17;;;7.90;99.90;;;;;;5054662;28;37277;-79
2022/02/24 05:57:02;;;;;;;15.90;3.70;;;7.90;99.90;;;;;;5047888;28;38175;-79
2022/02/24 05:59:29;;;;;;;7.60;2.60;;;7.90;99.90;;;;;;5054298;28;37790;-78
2022/02/24 06:01:56;;;;;;;14.50;3.50;;;7.90;99.90;;;;;;5071439;28;38944;-79
2022/02/24 06:04:23;;;;;;;15.47;3.30;;;7.90;99.90;;;;;;5039399;28;38959;-79
2022/02/24 06:06:52;;;;;;;12.43;3.73;;;7.90;99.90;;;;;;5044683;28;41616;-79
2022/02/24 06:09:18;;;;;;;15.83;3.57;;;7.90;99.90;;;;;;5046325;28;37471;-79
2022/02/24 06:11:46;;;;;;;12.60;3.23;;;7.90;99.90;;;;;;5064014;28;39437;-79
2022/02/24 06:14:12;;;;;;;15.43;3.40;;;7.90;99.90;;;;;;5046859;28;38473;-78
2022/02/24 06:16:39;;;;;;;20.83;4.50;;;7.90;99.90;;;;;;5040108;28;38629;-79
2022/02/24 06:19:05;;;;;;;13.70;3.30;;;7.90;99.90;;;;;;5049592;28;37859;-79
2022/02/24 06:21:31;;;;;;;13.90;2.97;;;7.90;99.90;;;;;;5041136;28;39367;-78
2022/02/24 06:23:57;;;;;;;9.67;2.90;;;7.90;99.90;;;;;;5023940;28;38745;-79
2022/02/24 06:26:23;;;;;;;10.37;2.73;;;7.90;99.90;;;;;;5041783;28;37303;-79
2022/02/24 06:28:49;;;;;;;11.07;3.10;;;7.90;99.90;;;;;;5047726;28;38899;-79
2022/02/24 06:31:15;;;;;;;12.97;2.67;;;7.90;99.90;;;;;;5063214;28;39542;-79
2022/02/24 06:33:41;;;;;;;14.73;3.30;;;7.90;99.90;;;;;;5058741;28;39333;-80
2022/02/24 06:36:07;;;;;;;11.80;3.70;;;7.80;99.90;;;;;;5069326;28;37749;-79
2022/02/24 06:38:37;;;;;;;13.50;3.03;;;7.90;99.90;;;;;;5053424;28;37691;-81
2022/02/24 06:41:03;;;;;;;10.40;2.83;;;7.90;99.90;;;;;;5043850;28;39672;-79
2022/02/24 06:43:29;;;;;;;12.30;3.20;;;7.90;99.90;;;;;;5039741;28;38107;-78
2022/02/24 06:45:56;;;;;;;13.07;3.00;;;7.90;99.90;;;;;;5047930;28;39780;-79
2022/02/24 06:48:24;;;;;;;10.53;2.47;;;7.90;99.90;;;;;;5042421;28;37848;-78
2022/02/24 06:50:50;;;;;;;13.67;3.03;;;7.90;99.90;;;;;;5051342;28;39352;-78
2022/02/24 06:53:17;;;;;;;11.30;2.43;;;7.90;99.90;;;;;;5036466;28;38746;-78
2022/02/24 06:55:43;;;;;;;8.17;2.20;;;7.90;99.90;;;;;;5055230;28;38007;-79
2022/02/24 06:58:09;;;;;;;11.00;2.83;;;7.90;99.90;;;;;;5046480;28;37674;-78
2022/02/24 07:00:35;;;;;;;9.33;2.27;;;7.90;99.90;;;;;;5053326;28;40153;-79
2022/02/24 07:03:01;;;;;;;12.60;2.80;;;7.90;99.90;;;;;;5062053;28;38996;-79
2022/02/24 07:05:27;;;;;;;10.37;2.20;;;7.90;99.90;;;;;;5052224;28;47086;-78
2022/02/24 07:07:54;;;;;;;10.37;2.47;;;8.00;99.90;;;;;;5055050;28;37317;-78
2022/02/24 07:10:20;;;;;;;11.43;2.43;;;8.00;99.90;;;;;;5054704;28;39323;-78
2022/02/24 07:12:46;;;;;;;12.07;2.13;;;8.00;99.90;;;;;;5064028;28;38440;-78
2022/02/24 07:15:13;;;;;;;10.27;2.10;;;8.00;99.90;;;;;;5066364;28;39300;-78
2022/02/24 07:17:44;;;;;;;7.87;2.40;;;8.00;99.90;;;;;;5060932;28;38109;-78
2022/02/24 07:20:12;;;;;;;10.53;2.37;;;8.10;99.90;;;;;;5061278;28;39781;-78
2022/02/24 07:22:38;;;;;;;11.87;2.80;;;8.10;99.90;;;;;;5067704;28;39884;-79
2022/02/24 07:25:05;;;;;;;10.43;2.17;;;8.10;99.90;;;;;;5062222;28;38937;-78
2022/02/24 07:27:32;;;;;;;13.50;2.47;;;8.20;99.90;;;;;;5062443;28;37635;-78
2022/02/24 07:30:15;;;;;;;11.40;2.80;;;8.20;99.90;;;;;;5067604;28;38315;-77
2022/02/24 07:32:42;;;;;;;8.13;1.98;;;8.20;99.90;;;;;;5055346;28;48792;-79
2022/02/24 07:35:08;;;;;;;8.47;2.67;;;8.20;99.90;;;;;;5060428;28;39016;-80
2022/02/24 07:37:35;;;;;;;6.73;2.40;;;8.10;99.90;;;;;;5059146;28;37373;-79
2022/02/24 07:40:07;;;;;;;12.67;2.17;;;8.10;99.90;;;;;;5059681;28;40026;-81
2022/02/24 07:42:34;;;;;;;17.13;2.50;;;8.10;99.90;;;;;;5058741;27;48146;-79
2022/02/24 07:45:07;;;;;;;11.47;2.00;;;8.10;99.90;;;;;;5058096;28;38089;-78
2022/02/24 07:47:33;;;;;;;5.30;1.67;;;8.10;99.90;;;;;;5061837;28;47182;-79
2022/02/24 07:50:00;;;;;;;12.70;2.00;;;8.10;99.90;;;;;;5064739;28;40822;-79
2022/02/24 07:52:26;;;;;;;9.37;2.30;;;8.10;99.90;;;;;;5058243;28;40339;-79
2022/02/24 07:54:54;;;;;;;8.50;1.97;;;8.10;99.90;;;;;;5055370;28;39807;-78
2022/02/24 07:57:20;;;;;;;8.10;2.17;;;8.10;99.90;;;;;;5061694;28;37390;-79
2022/02/24 07:59:46;;;;;;;12.17;1.70;;;8.10;99.90;;;;;;5055897;28;38858;-79
2022/02/24 08:02:12;;;;;;;9.50;1.90;;;8.00;99.90;;;;;;5058332;28;38586;-78
2022/02/24 08:04:38;;;;;;;10.73;2.33;;;8.00;99.90;;;;;;5069442;28;38196;-79
2022/02/24 08:07:05;;;;;;;9.07;1.90;;;8.00;99.90;;;;;;5041046;28;36358;-80
2022/02/24 08:09:32;;;;;;;11.87;1.97;;;8.10;99.90;;;;;;5045109;28;39056;-77
2022/02/24 08:14:43;;;;;;;10.03;2.30;;;8.20;99.90;;;;;;5065356;28;49555;-78
2022/02/24 08:17:09;;;;;;;15.33;2.53;;;8.20;99.90;;;;;;5038948;28;38073;-78
2022/02/24 08:19:35;;;;;;;13.50;2.47;;;8.20;99.90;;;;;;5040747;28;39698;-78
2022/02/24 08:22:02;;;;;;;8.83;2.13;;;8.30;99.90;;;;;;5061945;28;38930;-78
2022/02/24 08:24:30;;;;;;;13.30;2.57;;;8.20;99.90;;;;;;5054003;28;47578;-78
2022/02/24 08:26:56;;;;;;;10.33;2.30;;;8.30;99.90;;;;;;5042736;28;37364;-78
2022/02/24 08:29:22;;;;;;;10.07;2.37;;;8.40;99.90;;;;;;5065634;28;38830;-78
2022/02/24 08:31:48;;;;;;;15.57;2.70;;;8.40;99.90;;;;;;5061741;28;38606;-79
2022/02/24 08:34:15;;;;;;;9.53;3.03;;;8.40;99.90;;;;;;5051460;28;37277;-78
2022/02/24 08:36:41;;;;;;;15.33;2.93;;;8.40;99.90;;;;;;5060838;28;37052;-78
2022/02/24 08:39:08;;;;;;;11.97;2.80;;;8.50;99.90;;;;;;5046323;28;40432;-78
2022/02/24 08:41:35;;;;;;;13.30;2.60;;;8.50;99.90;;;;;;5062029;28;38597;-78
2022/02/24 08:44:01;;;;;;;17.47;3.60;;;8.50;99.90;;;;;;5058319;28;37761;-78
2022/02/24 08:46:27;;;;;;;11.93;2.90;;;8.50;99.90;;;;;;5061514;28;47106;-79
2022/02/24 08:48:53;;;;;;;10.53;2.40;;;8.50;99.90;;;;;;5064790;28;42306;-78
2022/02/24 08:51:20;;;;;;;10.43;2.37;;;8.50;99.90;;;;;;5048633;28;40078;-78
2022/02/24 08:53:46;;;;;;;9.83;2.87;;;8.60;99.90;;;;;;5054196;28;40015;-78
2022/02/24 08:56:12;;;;;;;9.33;2.20;;;8.60;99.90;;;;;;5046094;28;38910;-79
2022/02/24 08:58:38;;;;;;;12.73;2.43;;;8.60;99.90;;;;;;5044685;28;40412;-78
2022/02/24 09:01:04;;;;;;;13.70;3.00;;;8.60;99.90;;;;;;5058627;28;38386;-79
2022/02/24 09:03:30;;;;;;;12.57;2.70;;;8.70;99.90;;;;;;5059280;28;38599;-79
2022/02/24 09:05:56;;;;;;;13.10;2.40;;;8.70;99.90;;;;;;5063541;28;37051;-79
2022/02/24 09:08:22;;;;;;;14.57;2.50;;;8.80;99.90;;;;;;5067811;28;40274;-79
2022/02/24 09:10:48;;;;;;;14.90;3.00;;;8.80;99.90;;;;;;5067848;28;38371;-79
2022/02/24 09:13:15;;;;;;;14.43;2.93;;;8.90;99.90;;;;;;5068165;28;39021;-80
2022/02/24 09:15:41;;;;;;;16.20;3.47;;;8.90;99.90;;;;;;5065779;28;38071;-80
2022/02/24 09:18:09;;;;;;;14.57;3.10;;;8.90;99.90;;;;;;5063275;28;38865;-80
2022/02/24 09:20:35;;;;;;;15.47;3.70;;;8.80;99.90;;;;;;5063920;28;39387;-78
2022/02/24 09:23:01;;;;;;;16.47;3.20;;;8.90;99.90;;;;;;5080378;28;37154;-78
2022/02/24 09:25:27;;;;;;;20.03;3.23;;;8.90;99.90;;;;;;5069912;28;37853;-80
2022/02/24 09:27:53;;;;;;;12.37;3.00;;;8.80;99.90;;;;;;5066990;28;39049;-80
2022/02/24 09:30:20;;;;;;;13.63;3.67;;;8.80;99.90;;;;;;5062386;28;39671;-79
2022/02/24 09:32:46;;;;;;;17.93;3.53;;;8.80;99.90;;;;;;5065896;28;40017;-80
2022/02/24 09:35:17;;;;;;;16.97;3.70;;;8.70;99.90;;;;;;5065804;28;38754;-80
2022/02/24 09:37:43;;;;;;;15.97;3.37;;;8.60;99.90;;;;;;5066642;28;37856;-81
2022/02/24 09:40:11;;;;;;;14.97;4.20;;;8.60;99.90;;;;;;5068297;28;39705;-80
2022/02/24 09:42:37;;;;;;;14.70;3.53;;;8.70;99.90;;;;;;5065271;28;38873;-80
2022/02/24 09:45:04;;;;;;;15.50;4.27;;;8.80;99.90;;;;;;5060023;28;37666;-78
2022/02/24 09:47:31;;;;;;;17.07;3.93;;;8.80;99.90;;;;;;5065137;28;36595;-80
2022/02/24 09:50:01;;;;;;;15.43;3.60;;;8.80;99.90;;;;;;5065994;28;38988;-80
2022/02/24 09:52:27;;;;;;;14.33;3.30;;;8.90;99.90;;;;;;5063266;28;47410;-81
2022/02/24 09:54:53;;;;;;;13.97;2.90;;;9.00;99.90;;;;;;5066255;28;38270;-80
2022/02/24 09:57:19;;;;;;;14.43;3.10;;;9.30;99.90;;;;;;5066000;28;39864;-81
2022/02/24 09:59:46;;;;;;;13.07;3.07;;;9.60;99.90;;;;;;5055101;28;38853;-81
2022/02/24 10:02:13;;;;;;;12.63;3.60;;;9.60;99.90;;;;;;5066428;28;38120;-82
2022/02/24 10:05:02;;;;;;;13.87;3.17;;;9.60;99.90;;;;;;5073108;28;37282;-80
2022/02/24 10:07:28;;;;;;;13.20;2.43;;;9.50;99.90;;;;;;5065262;28;49034;-80
2022/02/24 10:09:54;;;;;;;14.53;3.87;;;9.50;99.90;;;;;;5068152;28;38921;-80
2022/02/24 10:12:20;;;;;;;10.87;3.53;;;9.50;99.90;;;;;;5062545;28;38898;-80
2022/02/24 10:14:46;;;;;;;12.57;3.47;;;9.40;99.90;;;;;;5062522;28;38188;-80
2022/02/24 10:17:15;;;;;;;15.23;3.23;;;9.50;99.90;;;;;;5060444;28;39205;-80
2022/02/24 10:19:47;;;;;;;13.13;3.30;;;9.60;99.90;;;;;;5050734;28;37084;-81
2022/02/24 10:22:25;;;;;;;14.52;3.10;;;9.70;99.90;;;;;;5068630;28;40083;-80
2022/02/24 10:25:02;;;;;;;17.93;3.80;;;9.70;99.90;;;;;;5074072;28;38810;-80
2022/02/24 10:27:34;;;;;;;10.93;2.90;;;9.90;99.90;;;;;;5074918;28;48376;-80
2022/02/24 10:30:05;;;;;;;15.83;3.40;;;10.00;99.90;;;;;;5062997;28;40016;-80
2022/02/24 10:32:35;;;;;;;18.37;3.47;;;10.10;99.90;;;;;;5066299;28;47103;-79
2022/02/24 10:35:20;;;;;;;12.23;3.45;;;10.20;99.90;;;;;;5072706;28;38017;-80
2022/02/24 10:38:07;;;;;;;15.83;3.13;;;10.10;99.90;;;;;;5069383;28;47010;-81
2022/02/24 10:40:38;;;;;;;19.23;3.60;;;10.10;99.90;;;;;;5061255;28;47758;-81
2022/02/24 10:43:19;;;;;;;13.80;3.43;;;10.20;99.90;;;;;;5072486;28;39522;-80
2022/02/24 10:45:48;;;;;;;13.60;3.50;;;10.10;99.90;;;;;;5060235;28;36331;-80
2022/02/24 10:48:14;;;;;;;12.43;3.63;;;10.20;99.90;;;;;;5063200;28;38182;-81
2022/02/24 10:51:05;;;;;;;12.57;3.77;;;10.30;99.90;;;;;;5066191;28;38220;-81
2022/02/24 10:53:33;;;;;;;12.10;3.20;;;10.30;99.90;;;;;;5067892;28;46180;-80
2022/02/24 10:56:08;;;;;;;15.80;3.17;;;10.50;99.90;;;;;;5072546;28;35827;-81
2022/02/24 10:58:44;;;;;;;12.47;3.70;;;10.50;99.90;;;;;;5065044;28;47123;-80
2022/02/24 11:01:18;;;;;;;13.53;3.40;;;10.50;99.90;;;;;;5069667;28;38897;-81
2022/02/24 11:03:48;;;;;;;15.82;3.33;;;10.40;99.90;;;;;;5062850;28;38395;-80
2022/02/24 11:06:14;;;;;;;12.33;2.80;;;10.40;99.90;;;;;;5061615;28;35855;-81
2022/02/24 11:08:43;;;;;;;16.53;3.07;;;10.40;99.90;;;;;;5067273;28;39274;-80
2022/02/24 11:11:16;;;;;;;8.97;2.90;;;10.50;99.90;;;;;;5056577;28;40091;-81
2022/02/24 11:13:42;;;;;;;11.82;2.92;;;10.40;99.90;;;;;;5069230;28;38460;-80
2022/02/24 11:16:09;;;;;;;13.68;3.25;;;10.40;99.90;;;;;;5068796;28;37353;-82
2022/02/24 11:18:41;;;;;;;15.67;3.20;;;10.40;99.90;;;;;;5079926;28;38593;-80
2022/02/24 11:21:11;;;;;;;12.13;3.10;;;10.30;99.90;;;;;;5073023;28;38642;-81
2022/02/24 11:23:47;;;;;;;8.63;3.03;;;10.30;99.90;;;;;;5077236;28;38869;-81
2022/02/24 11:26:21;;;;;;;12.20;2.47;;;10.20;99.90;;;;;;5072620;28;38567;-80
2022/02/24 11:29:05;;;;;;;16.88;3.35;;;10.20;99.90;;;;;;5052426;28;37541;-81
2022/02/24 11:32:04;;;;;;;18.73;4.60;;;10.20;99.90;;;;;;5065604;28;48977;-80
2022/02/24 11:34:55;;;;;;;18.00;3.07;;;10.30;99.90;;;;;;5051152;28;47194;-80
2022/02/24 11:37:26;;;;;;;12.27;2.43;;;10.10;99.90;;;;;;5054733;28;37408;-81
2022/02/24 11:40:02;;;;;;;11.63;2.63;;;10.10;99.90;;;;;;5065820;28;38926;-80
2022/02/24 11:42:30;;;;;;;11.57;3.20;;;10.10;99.90;;;;;;5043097;28;47182;-81
2022/02/24 11:44:58;;;;;;;11.50;2.97;;;9.90;99.90;;;;;;5072216;28;39175;-80
2022/02/24 11:47:25;;;;;;;11.90;3.27;;;9.80;99.90;;;;;;5050718;28;38157;-80
2022/02/24 11:49:54;;;;;;;16.70;3.30;;;9.60;99.90;;;;;;5062989;28;38950;-80
2022/02/24 11:52:28;;;;;;;15.73;3.60;;;9.40;99.90;;;;;;5046724;28;38692;-81
2022/02/24 11:54:57;;;;;;;13.83;2.93;;;9.40;99.90;;;;;;5078592;28;37912;-81
2022/02/24 11:57:34;;;;;;;16.90;3.23;;;9.30;99.90;;;;;;5049883;28;38472;-81
2022/02/24 12:00:12;;;;;;;14.23;3.27;;;9.30;99.90;;;;;;5058446;28;39356;-81
2022/02/24 12:02:42;;;;;;;11.00;2.97;;;9.30;99.90;;;;;;5064375;28;50519;-81
2022/02/24 12:05:24;;;;;;;11.07;3.37;;;9.20;99.90;;;;;;5069813;28;37589;-80
2022/02/24 12:08:03;;;;;;;15.93;4.27;;;9.10;99.90;;;;;;5060168;28;37774;-81
2022/02/24 12:10:49;;;;;;;13.30;2.83;;;9.10;99.90;;;;;;5068468;28;47474;-81
2022/02/24 12:13:29;;;;;;;13.47;3.13;;;9.00;99.90;;;;;;5065559;28;38723;-80
2022/02/24 12:16:15;;;;;;;15.73;2.70;;;8.90;99.90;;;;;;5061830;28;38172;-80
2022/02/24 12:18:43;;;;;;;12.80;2.87;;;8.90;99.90;;;;;;5061513;28;47305;-79
2022/02/24 12:21:30;;;;;;;11.13;2.87;;;8.80;99.90;;;;;;5065661;28;38925;-79
2022/02/24 12:23:59;;;;;;;9.90;2.60;;;8.70;99.90;;;;;;5059478;28;39860;-79
2022/02/24 12:26:43;;;;;;;13.70;2.87;;;8.60;99.90;;;;;;5057183;28;38645;-81
2022/02/24 12:29:30;;;;;;;8.03;2.17;;;8.50;99.90;;;;;;5057685;28;37041;-80
2022/02/24 12:32:01;;;;;;;12.93;2.60;;;8.30;99.90;;;;;;5063999;28;41310;-78
2022/02/24 12:34:29;;;;;;;9.03;1.23;;;8.10;99.90;;;;;;5066500;28;48572;-80
2022/02/24 12:37:16;;;;;;;11.07;1.83;;;7.50;99.90;;;;;;5082378;28;38713;-80
2022/02/24 12:39:42;;;;;;;10.00;1.57;;;6.80;99.90;;;;;;5058396;28;49224;-79
2022/02/24 12:42:12;;;;;;;9.67;1.30;;;6.50;99.90;;;;;;5061679;28;40172;-79
2022/02/24 12:44:41;;;;;;;7.93;1.10;;;6.40;99.90;;;;;;5060010;28;38486;-78
2022/02/24 12:47:08;;;;;;;9.90;0.97;;;6.40;99.90;;;;;;5076064;28;38832;-78
2022/02/24 12:49:49;;;;;;;6.23;1.00;;;6.40;99.90;;;;;;5082299;28;37354;-79
2022/02/24 12:52:17;;;;;;;5.73;0.73;;;6.40;99.90;;;;;;5053355;28;38425;-79
2022/02/24 12:54:44;;;;;;;3.17;0.80;;;6.40;99.90;;;;;;5075058;28;38281;-78